createdAt,value
2022-11-15T00:00:05.536Z,11.00
2022-11-15T00:05:22.020Z,12.17
2022-11-15T00:10:38.889Z,11.83
2022-11-15T00:15:59.513Z,12.23
2022-11-15T00:21:17.143Z,13.30
2022-11-15T00:26:33.636Z,10.37
2022-11-15T00:31:51.465Z,11.37
2022-11-15T00:37:08.510Z,12.57
2022-11-15T00:42:25.315Z,12.90
2022-11-15T00:47:45.808Z,10.70
2022-11-15T00:53:02.311Z,11.27
2022-11-15T00:58:18.898Z,10.83
2022-11-15T01:03:36.800Z,11.57
2022-11-15T01:08:53.170Z,11.67
2022-11-15T01:14:09.836Z,11.50
2022-11-15T01:19:27.743Z,11.83
2022-11-15T01:24:44.345Z,11.00
2022-11-15T01:30:00.952Z,13.13
2022-11-15T01:35:18.858Z,9.87
2022-11-15T01:40:35.450Z,10.20
2022-11-15T01:45:55.595Z,12.03
2022-11-15T01:51:16.669Z,10.10
2022-11-15T01:56:38.155Z,11.43
2022-11-15T02:01:55.176Z,10.67
2022-11-15T02:07:15.503Z,10.37
2022-11-15T02:12:32.694Z,11.70
2022-11-15T02:18:05.829Z,9.53
2022-11-15T02:23:56.005Z,10.13
2022-11-15T02:29:16.162Z,12.50
2022-11-15T02:34:44.335Z,11.67
2022-11-15T02:40:08.886Z,10.03
2022-11-15T02:45:29.925Z,9.40
2022-11-15T02:50:48.001Z,11.80
2022-11-15T02:56:05.107Z,11.97
2022-11-15T03:01:38.478Z,10.10
2022-11-15T03:07:03.960Z,11.53
2022-11-15T03:12:27.370Z,11.93
2022-11-15T03:17:49.821Z,11.77
2022-11-15T03:23:10.136Z,13.80
2022-11-15T03:28:33.698Z,10.50
2022-11-15T03:33:52.358Z,11.67
2022-11-15T03:39:13.232Z,11.87
2022-11-15T03:44:42.282Z,11.10
2022-11-15T03:50:03.194Z,8.47
2022-11-15T03:55:23.068Z,8.17
2022-11-15T04:00:39.532Z,8.90
2022-11-15T04:05:56.012Z,8.90
2022-11-15T04:11:13.893Z,7.43
2022-11-15T04:16:30.574Z,9.03
2022-11-15T04:22:04.153Z,10.00
2022-11-15T04:27:22.284Z,11.67
2022-11-15T04:32:39.110Z,10.73
2022-11-15T04:37:55.862Z,7.80
2022-11-15T04:43:13.916Z,7.60
2022-11-15T04:48:30.735Z,12.50
2022-11-15T04:53:47.300Z,11.63
2022-11-15T04:59:05.150Z,9.50
2022-11-15T05:04:22.097Z,9.60
2022-11-15T05:09:38.980Z,10.93
2022-11-15T05:14:56.765Z,10.93
2022-11-15T05:20:14.162Z,11.97
2022-11-15T05:25:30.897Z,7.87
2022-11-15T05:30:48.744Z,11.30
2022-11-15T05:36:09.712Z,10.90
2022-11-15T05:41:31.387Z,11.47
2022-11-15T05:46:50.467Z,10.57
2022-11-15T05:52:08.783Z,12.03
2022-11-15T05:57:26.381Z,9.17
2022-11-15T06:02:44.340Z,9.07
2022-11-15T06:08:00.919Z,7.97
2022-11-15T06:13:17.695Z,12.63
2022-11-15T06:18:36.544Z,8.97
2022-11-15T06:23:53.127Z,8.53
2022-11-15T06:29:09.650Z,8.47
2022-11-15T06:34:27.536Z,8.20
2022-11-15T06:39:44.253Z,10.80
2022-11-15T06:45:00.923Z,10.83
2022-11-15T06:50:19.306Z,10.90
2022-11-15T06:55:36.061Z,8.43
2022-11-15T07:00:52.588Z,12.57
2022-11-15T07:06:11.791Z,11.37
2022-11-15T07:11:28.495Z,12.73
2022-11-15T07:16:44.786Z,9.77
2022-11-15T07:22:02.472Z,8.57
2022-11-15T07:27:19.547Z,10.73
2022-11-15T07:32:36.890Z,8.50
2022-11-15T07:37:59.266Z,9.57
2022-11-15T07:43:16.218Z,9.37
2022-11-15T07:48:43.543Z,8.80
2022-11-15T07:54:02.735Z,8.70
2022-11-15T07:59:20.370Z,8.47
2022-11-15T08:04:37.124Z,9.33
2022-11-15T08:09:56.216Z,12.43
2022-11-15T08:15:12.688Z,10.97
2022-11-15T08:20:30.739Z,6.60
2022-11-15T08:25:48.800Z,7.37
2022-11-15T08:31:06.211Z,8.80
2022-11-15T08:36:22.987Z,11.40
2022-11-15T08:41:41.129Z,8.07
2022-11-15T08:46:57.912Z,7.43
2022-11-15T08:52:15.546Z,9.33
2022-11-15T08:57:33.691Z,7.20
2022-11-15T09:02:50.223Z,8.60
2022-11-15T09:08:25.523Z,7.20
2022-11-15T09:13:45.227Z,10.30
2022-11-15T09:19:02.174Z,10.60
2022-11-15T09:24:19.371Z,9.70
2022-11-15T09:29:37.867Z,8.10
2022-11-15T09:34:54.640Z,9.20
2022-11-15T09:40:17.276Z,7.83
2022-11-15T09:45:40.642Z,8.63
2022-11-15T09:51:00.794Z,9.27
2022-11-15T09:56:02.888Z,10.50
2022-11-15T10:01:08.778Z,5.83
2022-11-15T10:06:08.535Z,8.90
2022-11-15T10:17:05.395Z,5.13
2022-11-15T10:22:17.681Z,4.80
2022-11-15T10:27:17.168Z,6.00
2022-11-15T10:32:19.302Z,5.83
2022-11-15T10:37:30.067Z,6.33
2022-11-15T10:42:30.077Z,7.67
2022-11-15T10:47:37.798Z,7.20
2022-11-15T10:52:39.319Z,8.00
2022-11-15T10:57:40.119Z,6.40
2022-11-15T11:02:41.032Z,6.23
2022-11-15T11:07:39.154Z,7.30
2022-11-15T11:12:37.771Z,5.20
2022-11-15T11:17:53.368Z,5.97
2022-11-15T11:23:04.447Z,5.23
2022-11-15T11:28:23.043Z,6.47
2022-11-15T11:33:29.106Z,5.40
2022-11-15T11:38:55.852Z,6.20
2022-11-15T11:44:05.525Z,7.03
2022-11-15T11:49:10.943Z,5.67
2022-11-15T11:54:16.899Z,5.33
2022-11-15T11:59:23.341Z,7.00
2022-11-15T12:04:28.147Z,7.03
2022-11-15T12:09:34.040Z,5.17
2022-11-15T12:14:44.779Z,6.80
2022-11-15T12:19:44.744Z,6.23
2022-11-15T12:24:47.241Z,5.87
2022-11-15T12:29:49.739Z,5.73
2022-11-15T12:34:51.295Z,5.90
2022-11-15T12:40:22.389Z,4.87
2022-11-15T12:45:28.941Z,4.67
2022-11-15T12:50:57.457Z,5.03
2022-11-15T12:56:11.727Z,5.63
2022-11-15T13:01:10.029Z,5.10
2022-11-15T13:06:31.334Z,5.00
2022-11-15T13:11:53.686Z,6.50
2022-11-15T13:17:00.087Z,5.63
2022-11-15T13:22:16.119Z,5.57
2022-11-15T13:27:19.759Z,4.80
2022-11-15T13:32:18.884Z,4.60
2022-11-15T13:37:32.108Z,4.60
2022-11-15T13:42:31.653Z,4.20
2022-11-15T13:47:31.044Z,5.07
2022-11-15T13:52:33.384Z,6.43
2022-11-15T13:57:41.839Z,5.40
2022-11-15T14:02:40.247Z,4.50
2022-11-15T14:07:44.339Z,4.83
2022-11-15T14:12:52.874Z,5.07
2022-11-15T14:17:50.990Z,4.37
2022-11-15T14:22:54.738Z,5.47
2022-11-15T14:28:18.738Z,4.97
2022-11-15T14:33:25.434Z,5.47
2022-11-15T14:38:23.621Z,5.77
2022-11-15T14:43:23.370Z,6.50
2022-11-15T14:49:22.607Z,4.50
2022-11-15T14:54:20.751Z,4.60
2022-11-15T14:59:20.268Z,3.63
2022-11-15T15:04:18.377Z,4.90
2022-11-15T15:09:16.566Z,4.93
2022-11-15T15:14:16.460Z,5.30
2022-11-15T15:19:15.938Z,4.60
2022-11-15T15:24:16.780Z,4.20
2022-11-15T15:30:26.946Z,3.80
2022-11-15T15:35:29.892Z,4.60
2022-11-15T15:40:30.754Z,4.60
2022-11-15T15:45:30.467Z,4.97
2022-11-15T15:50:33.921Z,4.47
2022-11-15T15:55:32.412Z,6.70
2022-11-15T16:00:33.644Z,3.70
2022-11-15T16:05:33.149Z,5.77
2022-11-15T16:10:33.258Z,3.60
2022-11-15T16:15:33.803Z,4.80
2022-11-15T16:20:36.838Z,6.53
2022-11-15T16:25:39.634Z,5.53
2022-11-15T16:30:37.703Z,6.97
2022-11-15T16:35:37.101Z,8.07
2022-11-15T16:40:36.371Z,5.90
2022-11-15T16:52:29.984Z,5.57
2022-11-15T16:57:28.035Z,6.43
2022-11-15T17:02:26.166Z,5.57
2022-11-15T17:07:25.262Z,6.60
2022-11-15T17:12:24.761Z,4.30
2022-11-15T17:17:22.877Z,4.13
2022-11-15T17:22:21.142Z,6.10
2022-11-15T17:27:21.483Z,5.20
2022-11-15T17:32:20.967Z,4.67
2022-11-15T17:37:19.133Z,5.10
2022-11-15T17:42:17.286Z,4.80
2022-11-15T17:47:15.418Z,5.27
2022-11-15T17:52:15.054Z,3.93
2022-11-15T18:04:03.009Z,4.70
2022-11-15T18:09:03.682Z,4.27
2022-11-15T18:14:03.871Z,6.20
2022-11-15T18:19:02.236Z,5.30
2022-11-15T18:24:02.967Z,4.73
2022-11-15T18:36:02.146Z,4.57
2022-11-15T18:41:07.833Z,5.23
2022-11-15T18:46:07.224Z,5.53
2022-11-15T18:51:06.751Z,4.90
2022-11-15T18:56:08.406Z,5.97
2022-11-15T19:01:08.504Z,5.40
2022-11-15T19:06:08.348Z,5.43
2022-11-15T19:11:09.882Z,6.07
2022-11-15T19:16:09.251Z,5.77
2022-11-15T19:21:12.224Z,5.73
2022-11-15T19:26:16.007Z,5.07
2022-11-15T19:31:15.808Z,5.20
2022-11-15T19:36:15.373Z,5.67
2022-11-15T19:41:16.431Z,5.43
2022-11-15T19:46:14.913Z,5.70
2022-11-15T19:51:14.654Z,4.80
2022-11-15T19:56:16.255Z,6.33
2022-11-15T20:01:19.016Z,5.60
2022-11-15T20:06:18.986Z,6.90
2022-11-15T20:11:19.224Z,5.77
2022-11-15T20:16:19.304Z,6.77
2022-11-15T20:21:18.374Z,5.43
2022-11-15T20:26:17.928Z,6.67
2022-11-15T20:31:44.208Z,5.90
2022-11-15T20:36:42.396Z,5.80
2022-11-15T20:41:41.924Z,7.10
2022-11-15T20:46:40.128Z,6.60
2022-11-15T20:51:38.246Z,6.37
2022-11-15T20:56:36.340Z,6.67
2022-11-15T21:01:35.914Z,7.50
2022-11-15T21:06:34.083Z,6.10
2022-11-15T21:11:49.491Z,6.00
2022-11-15T21:16:49.075Z,6.33
2022-11-15T21:21:47.220Z,5.90
2022-11-15T21:26:45.381Z,5.27
2022-11-15T21:31:43.576Z,5.97
2022-11-15T21:36:43.088Z,5.77
2022-11-15T21:41:41.422Z,7.60
2022-11-15T21:46:39.559Z,6.73
2022-11-15T21:51:37.889Z,6.27
2022-11-15T21:56:37.455Z,8.00
2022-11-15T22:01:52.533Z,8.17
2022-11-15T22:06:50.868Z,7.70
2022-11-15T22:11:50.395Z,6.63
2022-11-15T22:16:48.543Z,7.97
2022-11-15T22:21:46.781Z,10.00
2022-11-15T22:26:45.046Z,10.40
2022-11-15T22:31:44.654Z,8.40
2022-11-15T22:37:13.319Z,10.40
2022-11-15T22:42:03.677Z,10.90
2022-11-15T22:47:03.541Z,11.50
2022-11-15T22:52:01.773Z,9.20
2022-11-15T22:57:00.011Z,10.73
2022-11-15T23:01:58.308Z,9.60
2022-11-15T23:06:58.067Z,10.30
2022-11-15T23:12:13.735Z,12.80
2022-11-15T23:17:12.057Z,12.17
2022-11-15T23:22:28.929Z,14.03
2022-11-15T23:27:27.407Z,9.80
2022-11-15T23:32:40.742Z,12.33
2022-11-15T23:38:37.891Z,13.00
2022-11-15T23:43:37.554Z,13.70
2022-11-15T23:48:35.990Z,13.20
2022-11-15T23:53:34.451Z,12.00
2022-11-15T23:58:33.441Z,10.60
